sensor_id;sensor_type;location;lat;lon;timestamp;temperature;humidity
6843;DHT22;3460;52.028;8.916;2022-11-20T00:02:09;-3.90;99.90
6843;DHT22;3460;52.028;8.916;2022-11-20T00:04:35;-4.00;99.90
6843;DHT22;3460;52.028;8.916;2022-11-20T00:07:02;-4.20;99.90
6843;DHT22;3460;52.028;8.916;2022-11-20T00:09:29;-4.30;99.90
6843;DHT22;3460;52.028;8.916;2022-11-20T00:11:55;-4.40;99.90
6843;DHT22;3460;52.028;8.916;2022-11-20T00:14:23;-4.50;99.90
6843;DHT22;3460;52.028;8.916;2022-11-20T00:16:50;-4.60;99.90
6843;DHT22;3460;52.028;8.916;2022-11-20T00:19:17;-4.60;99.90
6843;DHT22;3460;52.028;8.916;2022-11-20T00:21:43;-4.70;99.90
6843;DHT22;3460;52.028;8.916;2022-11-20T00:24:10;-4.60;99.90
6843;DHT22;3460;52.028;8.916;2022-11-20T00:26:37;-4.60;99.90
6843;DHT22;3460;52.028;8.916;2022-11-20T00:29:04;-4.60;99.90
6843;DHT22;3460;52.028;8.916;2022-11-20T00:31:32;-4.70;99.90
6843;DHT22;3460;52.028;8.916;2022-11-20T00:33:59;-4.70;99.90
6843;DHT22;3460;52.028;8.916;2022-11-20T00:36:27;-4.60;99.90
6843;DHT22;3460;52.028;8.916;2022-11-20T00:38:56;-4.50;99.90
6843;DHT22;3460;52.028;8.916;2022-11-20T00:41:24;-4.40;99.90
6843;DHT22;3460;52.028;8.916;2022-11-20T00:43:52;-4.40;99.90
6843;DHT22;3460;52.028;8.916;2022-11-20T00:46:20;-4.30;99.90
6843;DHT22;3460;52.028;8.916;2022-11-20T00:48:49;-4.30;99.90
6843;DHT22;3460;52.028;8.916;2022-11-20T00:51:17;-4.30;99.90
6843;DHT22;3460;52.028;8.916;2022-11-20T00:53:45;-4.20;99.90
6843;DHT22;3460;52.028;8.916;2022-11-20T00:56:13;-4.20;99.90
6843;DHT22;3460;52.028;8.916;2022-11-20T00:58:41;-4.20;99.90
6843;DHT22;3460;52.028;8.916;2022-11-20T01:01:10;-4.20;99.90
6843;DHT22;3460;52.028;8.916;2022-11-20T01:03:39;-4.20;99.90
6843;DHT22;3460;52.028;8.916;2022-11-20T01:06:09;-4.10;99.90
6843;DHT22;3460;52.028;8.916;2022-11-20T01:08:37;-4.10;99.90
6843;DHT22;3460;52.028;8.916;2022-11-20T01:11:06;-4.10;99.90
6843;DHT22;3460;52.028;8.916;2022-11-20T01:13:33;-4.10;99.90
6843;DHT22;3460;52.028;8.916;2022-11-20T01:16:08;-4.10;99.90
6843;DHT22;3460;52.028;8.916;2022-11-20T01:18:35;-4.00;99.90
6843;DHT22;3460;52.028;8.916;2022-11-20T01:21:03;-4.00;99.90
6843;DHT22;3460;52.028;8.916;2022-11-20T01:23:33;-4.10;99.90
6843;DHT22;3460;52.028;8.916;2022-11-20T01:26:02;-4.10;99.90
6843;DHT22;3460;52.028;8.916;2022-11-20T01:28:29;-4.00;99.90
6843;DHT22;3460;52.028;8.916;2022-11-20T01:30:56;-4.10;99.90
6843;DHT22;3460;52.028;8.916;2022-11-20T01:33:22;-4.10;99.90
6843;DHT22;3460;52.028;8.916;2022-11-20T01:35:49;-4.20;99.90
6843;DHT22;3460;52.028;8.916;2022-11-20T01:38:16;-4.40;99.90
6843;DHT22;3460;52.028;8.916;2022-11-20T01:40:45;-4.50;99.90
6843;DHT22;3460;52.028;8.916;2022-11-20T01:43:14;-4.50;99.90
6843;DHT22;3460;52.028;8.916;2022-11-20T01:46:12;-4.50;99.90
6843;DHT22;3460;52.028;8.916;2022-11-20T01:48:44;-4.50;99.90
6843;DHT22;3460;52.028;8.916;2022-11-20T01:51:18;-4.50;99.90
6843;DHT22;3460;52.028;8.916;2022-11-20T01:53:46;-4.60;99.90
6843;DHT22;3460;52.028;8.916;2022-11-20T01:56:15;-4.60;99.90
6843;DHT22;3460;52.028;8.916;2022-11-20T01:58:44;-4.70;99.90
6843;DHT22;3460;52.028;8.916;2022-11-20T02:01:14;-4.60;99.90
6843;DHT22;3460;52.028;8.916;2022-11-20T02:03:41;-4.60;99.90
6843;DHT22;3460;52.028;8.916;2022-11-20T02:06:13;-4.60;99.90
6843;DHT22;3460;52.028;8.916;2022-11-20T02:08:41;-4.50;99.90
6843;DHT22;3460;52.028;8.916;2022-11-20T02:11:08;-4.60;99.90
6843;DHT22;3460;52.028;8.916;2022-11-20T02:13:36;-4.80;99.90
6843;DHT22;3460;52.028;8.916;2022-11-20T02:16:16;-4.80;99.90
6843;DHT22;3460;52.028;8.916;2022-11-20T02:18:45;-4.80;99.90
6843;DHT22;3460;52.028;8.916;2022-11-20T02:21:21;-4.80;99.90
6843;DHT22;3460;52.028;8.916;2022-11-20T02:24:02;-4.80;99.90
6843;DHT22;3460;52.028;8.916;2022-11-20T02:26:31;-4.70;99.90
6843;DHT22;3460;52.028;8.916;2022-11-20T02:29:00;-4.70;99.90
6843;DHT22;3460;52.028;8.916;2022-11-20T02:31:28;-4.60;99.90
6843;DHT22;3460;52.028;8.916;2022-11-20T02:33:56;-4.60;99.90
6843;DHT22;3460;52.028;8.916;2022-11-20T02:36:24;-4.60;99.90
6843;DHT22;3460;52.028;8.916;2022-11-20T02:38:52;-4.70;99.90
6843;DHT22;3460;52.028;8.916;2022-11-20T02:41:20;-4.70;99.90
6843;DHT22;3460;52.028;8.916;2022-11-20T02:43:47;-4.60;99.90
6843;DHT22;3460;52.028;8.916;2022-11-20T02:46:14;-4.60;99.90
6843;DHT22;3460;52.028;8.916;2022-11-20T02:48:41;-4.60;99.90
6843;DHT22;3460;52.028;8.916;2022-11-20T02:51:07;-4.60;99.90
6843;DHT22;3460;52.028;8.916;2022-11-20T02:53:34;-4.60;99.90
6843;DHT22;3460;52.028;8.916;2022-11-20T02:56:00;-4.60;99.90
6843;DHT22;3460;52.028;8.916;2022-11-20T02:58:28;-4.60;99.90
6843;DHT22;3460;52.028;8.916;2022-11-20T03:00:55;-4.60;99.90
6843;DHT22;3460;52.028;8.916;2022-11-20T03:03:22;-4.60;99.90
6843;DHT22;3460;52.028;8.916;2022-11-20T03:05:49;-4.60;99.90
6843;DHT22;3460;52.028;8.916;2022-11-20T03:08:15;-4.60;99.90
6843;DHT22;3460;52.028;8.916;2022-11-20T03:10:42;-4.60;99.90
6843;DHT22;3460;52.028;8.916;2022-11-20T03:13:09;-4.60;99.90
6843;DHT22;3460;52.028;8.916;2022-11-20T03:15:37;-4.50;99.90
6843;DHT22;3460;52.028;8.916;2022-11-20T03:18:04;-4.50;99.90
6843;DHT22;3460;52.028;8.916;2022-11-20T03:20:32;-4.50;99.90
6843;DHT22;3460;52.028;8.916;2022-11-20T03:22:59;-4.30;99.90
6843;DHT22;3460;52.028;8.916;2022-11-20T03:25:25;-4.50;99.90
6843;DHT22;3460;52.028;8.916;2022-11-20T03:27:52;-4.60;99.90
6843;DHT22;3460;52.028;8.916;2022-11-20T03:30:19;-4.70;99.90
6843;DHT22;3460;52.028;8.916;2022-11-20T03:32:47;-4.90;99.90
6843;DHT22;3460;52.028;8.916;2022-11-20T03:35:14;-4.90;99.90
6843;DHT22;3460;52.028;8.916;2022-11-20T03:37:41;-4.90;99.90
6843;DHT22;3460;52.028;8.916;2022-11-20T03:40:08;-4.80;99.90
6843;DHT22;3460;52.028;8.916;2022-11-20T03:42:35;-4.90;99.90
6843;DHT22;3460;52.028;8.916;2022-11-20T03:45:15;-4.80;99.90
6843;DHT22;3460;52.028;8.916;2022-11-20T03:47:42;-4.70;99.90
6843;DHT22;3460;52.028;8.916;2022-11-20T03:50:12;-4.70;99.90
6843;DHT22;3460;52.028;8.916;2022-11-20T03:52:39;-4.80;99.90
6843;DHT22;3460;52.028;8.916;2022-11-20T03:55:06;-4.80;99.90
6843;DHT22;3460;52.028;8.916;2022-11-20T03:57:33;-4.70;99.90
6843;DHT22;3460;52.028;8.916;2022-11-20T04:00:00;-4.70;99.90
6843;DHT22;3460;52.028;8.916;2022-11-20T04:02:26;-4.60;99.90
6843;DHT22;3460;52.028;8.916;2022-11-20T04:04:53;-4.60;99.90
6843;DHT22;3460;52.028;8.916;2022-11-20T04:07:21;-4.70;99.90
6843;DHT22;3460;52.028;8.916;2022-11-20T04:09:48;-4.70;99.90
6843;DHT22;3460;52.028;8.916;2022-11-20T04:12:14;-4.70;99.90
6843;DHT22;3460;52.028;8.916;2022-11-20T04:14:41;-4.70;99.90
6843;DHT22;3460;52.028;8.916;2022-11-20T04:17:08;-4.60;99.90
6843;DHT22;3460;52.028;8.916;2022-11-20T04:19:34;-4.60;99.90
6843;DHT22;3460;52.028;8.916;2022-11-20T04:22:01;-4.60;99.90
6843;DHT22;3460;52.028;8.916;2022-11-20T04:24:29;-4.60;99.90
6843;DHT22;3460;52.028;8.916;2022-11-20T04:26:56;-4.50;99.90
6843;DHT22;3460;52.028;8.916;2022-11-20T04:29:22;-4.60;99.90
6843;DHT22;3460;52.028;8.916;2022-11-20T04:31:49;-4.60;99.90
6843;DHT22;3460;52.028;8.916;2022-11-20T04:34:16;-4.70;99.90
6843;DHT22;3460;52.028;8.916;2022-11-20T04:36:43;-4.70;99.90
6843;DHT22;3460;52.028;8.916;2022-11-20T04:39:12;-4.70;99.90
6843;DHT22;3460;52.028;8.916;2022-11-20T04:41:41;-4.80;99.90
6843;DHT22;3460;52.028;8.916;2022-11-20T04:44:07;-4.80;99.90
6843;DHT22;3460;52.028;8.916;2022-11-20T04:46:36;-4.80;99.90
6843;DHT22;3460;52.028;8.916;2022-11-20T04:49:04;-4.80;99.90
6843;DHT22;3460;52.028;8.916;2022-11-20T04:51:30;-4.80;99.90
6843;DHT22;3460;52.028;8.916;2022-11-20T04:53:57;-4.90;99.90
6843;DHT22;3460;52.028;8.916;2022-11-20T04:56:24;-4.90;99.90
6843;DHT22;3460;52.028;8.916;2022-11-20T04:58:52;-4.90;99.90
6843;DHT22;3460;52.028;8.916;2022-11-20T05:01:20;-5.00;99.90
6843;DHT22;3460;52.028;8.916;2022-11-20T05:03:47;-5.00;99.90
6843;DHT22;3460;52.028;8.916;2022-11-20T05:06:16;-4.90;99.90
6843;DHT22;3460;52.028;8.916;2022-11-20T05:08:43;-4.90;99.90
6843;DHT22;3460;52.028;8.916;2022-11-20T05:11:11;-4.90;99.90
6843;DHT22;3460;52.028;8.916;2022-11-20T05:13:38;-4.90;99.90
6843;DHT22;3460;52.028;8.916;2022-11-20T05:16:08;-4.90;99.90
6843;DHT22;3460;52.028;8.916;2022-11-20T05:18:35;-4.80;99.90
6843;DHT22;3460;52.028;8.916;2022-11-20T05:21:03;-4.70;99.90
6843;DHT22;3460;52.028;8.916;2022-11-20T05:23:31;-4.60;99.90
6843;DHT22;3460;52.028;8.916;2022-11-20T05:25:58;-4.50;99.90
6843;DHT22;3460;52.028;8.916;2022-11-20T05:28:26;-4.50;99.90
6843;DHT22;3460;52.028;8.916;2022-11-20T05:30:53;-4.50;99.90
6843;DHT22;3460;52.028;8.916;2022-11-20T05:33:21;-4.50;99.90
6843;DHT22;3460;52.028;8.916;2022-11-20T05:35:48;-4.50;99.90
6843;DHT22;3460;52.028;8.916;2022-11-20T05:38:15;-4.50;99.90
6843;DHT22;3460;52.028;8.916;2022-11-20T05:40:42;-4.40;99.90
6843;DHT22;3460;52.028;8.916;2022-11-20T05:43:08;-4.40;99.90
6843;DHT22;3460;52.028;8.916;2022-11-20T05:45:35;-4.50;99.90
6843;DHT22;3460;52.028;8.916;2022-11-20T05:48:02;-4.50;99.90
6843;DHT22;3460;52.028;8.916;2022-11-20T05:50:30;-4.50;99.90
6843;DHT22;3460;52.028;8.916;2022-11-20T05:52:58;-4.40;99.90
6843;DHT22;3460;52.028;8.916;2022-11-20T05:55:25;-4.50;99.90
6843;DHT22;3460;52.028;8.916;2022-11-20T05:57:52;-4.50;99.90
6843;DHT22;3460;52.028;8.916;2022-11-20T06:00:19;-4.60;99.90
6843;DHT22;3460;52.028;8.916;2022-11-20T06:02:46;-4.60;99.90
6843;DHT22;3460;52.028;8.916;2022-11-20T06:05:13;-4.70;99.90
6843;DHT22;3460;52.028;8.916;2022-11-20T06:07:41;-4.70;99.90
6843;DHT22;3460;52.028;8.916;2022-11-20T06:10:08;-4.70;99.90
6843;DHT22;3460;52.028;8.916;2022-11-20T06:12:35;-4.70;99.90
6843;DHT22;3460;52.028;8.916;2022-11-20T06:15:02;-4.70;99.90
6843;DHT22;3460;52.028;8.916;2022-11-20T06:17:29;-4.80;99.90
6843;DHT22;3460;52.028;8.916;2022-11-20T06:19:56;-4.80;99.90
6843;DHT22;3460;52.028;8.916;2022-11-20T06:22:23;-4.70;99.90
6843;DHT22;3460;52.028;8.916;2022-11-20T06:24:51;-4.70;99.90
6843;DHT22;3460;52.028;8.916;2022-11-20T06:27:17;-4.70;99.90
6843;DHT22;3460;52.028;8.916;2022-11-20T06:29:44;-4.70;99.90
6843;DHT22;3460;52.028;8.916;2022-11-20T06:32:11;-4.70;99.90
6843;DHT22;3460;52.028;8.916;2022-11-20T06:34:37;-4.60;99.90
6843;DHT22;3460;52.028;8.916;2022-11-20T06:37:04;-4.70;99.90
6843;DHT22;3460;52.028;8.916;2022-11-20T06:39:31;-4.70;99.90
6843;DHT22;3460;52.028;8.916;2022-11-20T06:41:59;-4.70;99.90
6843;DHT22;3460;52.028;8.916;2022-11-20T06:44:25;-4.60;99.90
6843;DHT22;3460;52.028;8.916;2022-11-20T06:46:52;-4.60;99.90
6843;DHT22;3460;52.028;8.916;2022-11-20T06:49:19;-4.70;99.90
6843;DHT22;3460;52.028;8.916;2022-11-20T06:51:45;-4.70;99.90
6843;DHT22;3460;52.028;8.916;2022-11-20T06:54:12;-4.70;99.90
6843;DHT22;3460;52.028;8.916;2022-11-20T06:56:39;-4.80;99.90
6843;DHT22;3460;52.028;8.916;2022-11-20T06:59:07;-4.80;99.90
6843;DHT22;3460;52.028;8.916;2022-11-20T07:01:34;-4.80;99.90
6843;DHT22;3460;52.028;8.916;2022-11-20T07:04:01;-4.80;99.90
6843;DHT22;3460;52.028;8.916;2022-11-20T07:06:28;-4.80;99.90
6843;DHT22;3460;52.028;8.916;2022-11-20T07:08:55;-4.80;99.90
6843;DHT22;3460;52.028;8.916;2022-11-20T07:11:22;-4.80;99.90
6843;DHT22;3460;52.028;8.916;2022-11-20T07:13:48;-4.80;99.90
6843;DHT22;3460;52.028;8.916;2022-11-20T07:16:16;-4.80;99.90
6843;DHT22;3460;52.028;8.916;2022-11-20T07:18:43;-4.80;99.90
6843;DHT22;3460;52.028;8.916;2022-11-20T07:21:10;-4.80;99.90
6843;DHT22;3460;52.028;8.916;2022-11-20T07:23:37;-4.80;99.90
6843;DHT22;3460;52.028;8.916;2022-11-20T07:26:05;-4.80;99.90
6843;DHT22;3460;52.028;8.916;2022-11-20T07:28:32;-4.80;99.90
6843;DHT22;3460;52.028;8.916;2022-11-20T07:30:59;-4.70;99.90
6843;DHT22;3460;52.028;8.916;2022-11-20T07:33:27;-4.70;99.90
6843;DHT22;3460;52.028;8.916;2022-11-20T07:35:54;-4.60;99.90
6843;DHT22;3460;52.028;8.916;2022-11-20T07:38:20;-4.60;99.90
6843;DHT22;3460;52.028;8.916;2022-11-20T07:40:47;-4.60;99.90
6843;DHT22;3460;52.028;8.916;2022-11-20T07:43:14;-4.60;99.90
6843;DHT22;3460;52.028;8.916;2022-11-20T07:45:41;-4.60;99.90
6843;DHT22;3460;52.028;8.916;2022-11-20T07:48:07;-4.60;99.90
6843;DHT22;3460;52.028;8.916;2022-11-20T07:50:35;-4.60;99.90
6843;DHT22;3460;52.028;8.916;2022-11-20T07:53:03;-4.60;99.90
6843;DHT22;3460;52.028;8.916;2022-11-20T07:55:30;-4.50;99.90
6843;DHT22;3460;52.028;8.916;2022-11-20T07:57:57;-4.50;99.90
6843;DHT22;3460;52.028;8.916;2022-11-20T08:00:24;-4.40;99.90
6843;DHT22;3460;52.028;8.916;2022-11-20T08:02:51;-4.40;99.90
6843;DHT22;3460;52.028;8.916;2022-11-20T08:05:18;-4.40;99.90
6843;DHT22;3460;52.028;8.916;2022-11-20T08:07:46;-4.40;99.90
6843;DHT22;3460;52.028;8.916;2022-11-20T08:10:15;-4.30;99.90
6843;DHT22;3460;52.028;8.916;2022-11-20T08:12:45;-4.30;99.90
6843;DHT22;3460;52.028;8.916;2022-11-20T08:15:30;-4.30;99.90
6843;DHT22;3460;52.028;8.916;2022-11-20T08:18:02;-4.20;99.90
6843;DHT22;3460;52.028;8.916;2022-11-20T08:20:28;-4.20;99.90
6843;DHT22;3460;52.028;8.916;2022-11-20T08:23:00;-4.30;99.90
6843;DHT22;3460;52.028;8.916;2022-11-20T08:25:28;-4.30;99.90
6843;DHT22;3460;52.028;8.916;2022-11-20T08:27:57;-4.10;99.90
6843;DHT22;3460;52.028;8.916;2022-11-20T08:30:24;-4.10;99.90
6843;DHT22;3460;52.028;8.916;2022-11-20T08:32:51;-4.00;99.90
6843;DHT22;3460;52.028;8.916;2022-11-20T08:35:17;-3.90;99.90
6843;DHT22;3460;52.028;8.916;2022-11-20T08:37:46;-3.80;99.90
6843;DHT22;3460;52.028;8.916;2022-11-20T08:40:14;-3.80;99.90
6843;DHT22;3460;52.028;8.916;2022-11-20T08:42:46;-3.70;99.90
6843;DHT22;3460;52.028;8.916;2022-11-20T08:45:13;-3.50;99.90
6843;DHT22;3460;52.028;8.916;2022-11-20T08:47:40;-3.30;99.90
6843;DHT22;3460;52.028;8.916;2022-11-20T08:50:08;-3.10;99.90
6843;DHT22;3460;52.028;8.916;2022-11-20T08:52:34;-3.10;99.90
6843;DHT22;3460;52.028;8.916;2022-11-20T08:55:01;-2.90;99.90
6843;DHT22;3460;52.028;8.916;2022-11-20T08:57:31;-2.70;99.90
6843;DHT22;3460;52.028;8.916;2022-11-20T08:59:58;-2.70;99.90
6843;DHT22;3460;52.028;8.916;2022-11-20T09:02:24;-2.70;99.90
6843;DHT22;3460;52.028;8.916;2022-11-20T09:04:51;-2.50;99.90
6843;DHT22;3460;52.028;8.916;2022-11-20T09:07:18;-2.30;99.90
6843;DHT22;3460;52.028;8.916;2022-11-20T09:09:45;-2.30;99.90
6843;DHT22;3460;52.028;8.916;2022-11-20T09:12:13;-2.20;99.90
6843;DHT22;3460;52.028;8.916;2022-11-20T09:14:41;-2.10;99.90
6843;DHT22;3460;52.028;8.916;2022-11-20T09:17:09;-2.00;99.90
6843;DHT22;3460;52.028;8.916;2022-11-20T09:19:38;-2.00;99.90
6843;DHT22;3460;52.028;8.916;2022-11-20T09:22:05;-2.10;99.90
6843;DHT22;3460;52.028;8.916;2022-11-20T09:24:32;-2.00;99.90
6843;DHT22;3460;52.028;8.916;2022-11-20T09:27:02;-2.00;99.90
6843;DHT22;3460;52.028;8.916;2022-11-20T09:29:28;-2.10;99.90
6843;DHT22;3460;52.028;8.916;2022-11-20T09:31:56;-2.00;99.90
6843;DHT22;3460;52.028;8.916;2022-11-20T09:34:23;-2.00;99.90
6843;DHT22;3460;52.028;8.916;2022-11-20T09:36:50;-1.90;99.90
6843;DHT22;3460;52.028;8.916;2022-11-20T09:39:16;-1.90;99.90
6843;DHT22;3460;52.028;8.916;2022-11-20T09:41:56;-1.80;99.90
6843;DHT22;3460;52.028;8.916;2022-11-20T09:44:40;-1.80;99.90
6843;DHT22;3460;52.028;8.916;2022-11-20T09:47:17;-1.60;99.90
6843;DHT22;3460;52.028;8.916;2022-11-20T09:49:59;-1.60;99.90
6843;DHT22;3460;52.028;8.916;2022-11-20T09:52:38;-1.50;99.90
6843;DHT22;3460;52.028;8.916;2022-11-20T09:55:10;-1.60;99.90
6843;DHT22;3460;52.028;8.916;2022-11-20T09:57:40;-1.60;99.90
6843;DHT22;3460;52.028;8.916;2022-11-20T10:00:11;-1.70;99.90
6843;DHT22;3460;52.028;8.916;2022-11-20T10:02:43;-1.70;99.90
6843;DHT22;3460;52.028;8.916;2022-11-20T10:05:15;-1.60;99.90
6843;DHT22;3460;52.028;8.916;2022-11-20T10:07:47;-1.60;99.90
6843;DHT22;3460;52.028;8.916;2022-11-20T10:10:15;-1.50;99.90
6843;DHT22;3460;52.028;8.916;2022-11-20T10:12:53;-1.30;99.90
6843;DHT22;3460;52.028;8.916;2022-11-20T10:15:32;-1.30;99.90
6843;DHT22;3460;52.028;8.916;2022-11-20T10:18:11;-1.20;99.90
6843;DHT22;3460;52.028;8.916;2022-11-20T10:20:46;-1.10;99.90
6843;DHT22;3460;52.028;8.916;2022-11-20T10:23:35;-1.00;99.90
6843;DHT22;3460;52.028;8.916;2022-11-20T10:26:17;-1.00;99.90
6843;DHT22;3460;52.028;8.916;2022-11-20T10:28:52;-1.00;99.90
6843;DHT22;3460;52.028;8.916;2022-11-20T10:31:28;-1.00;99.90
6843;DHT22;3460;52.028;8.916;2022-11-20T10:34:00;-0.90;99.90
6843;DHT22;3460;52.028;8.916;2022-11-20T10:36:30;-0.90;99.90
6843;DHT22;3460;52.028;8.916;2022-11-20T10:39:04;-0.90;99.90
6843;DHT22;3460;52.028;8.916;2022-11-20T10:41:37;-0.80;99.90
6843;DHT22;3460;52.028;8.916;2022-11-20T10:44:10;-0.80;99.90
6843;DHT22;3460;52.028;8.916;2022-11-20T10:46:43;-0.70;99.90
6843;DHT22;3460;52.028;8.916;2022-11-20T10:49:13;-0.60;99.90
6843;DHT22;3460;52.028;8.916;2022-11-20T10:51:51;-0.60;99.90
6843;DHT22;3460;52.028;8.916;2022-11-20T10:54:27;-0.40;99.90
6843;DHT22;3460;52.028;8.916;2022-11-20T10:57:01;-0.30;99.90
6843;DHT22;3460;52.028;8.916;2022-11-20T10:59:41;-0.30;99.90
6843;DHT22;3460;52.028;8.916;2022-11-20T11:02:18;-0.40;99.90
6843;DHT22;3460;52.028;8.916;2022-11-20T11:04:48;-0.40;99.90
6843;DHT22;3460;52.028;8.916;2022-11-20T11:07:17;-0.20;99.90
6843;DHT22;3460;52.028;8.916;2022-11-20T11:09:48;-0.20;99.90
6843;DHT22;3460;52.028;8.916;2022-11-20T11:12:16;0.00;99.90
6843;DHT22;3460;52.028;8.916;2022-11-20T11:14:45;0.10;99.90
6843;DHT22;3460;52.028;8.916;2022-11-20T11:17:33;0.30;99.90
6843;DHT22;3460;52.028;8.916;2022-11-20T11:20:11;0.20;99.90
6843;DHT22;3460;52.028;8.916;2022-11-20T11:22:43;0.20;99.90
6843;DHT22;3460;52.028;8.916;2022-11-20T11:25:23;0.10;99.90
6843;DHT22;3460;52.028;8.916;2022-11-20T11:27:51;0.20;99.90
6843;DHT22;3460;52.028;8.916;2022-11-20T11:30:21;0.20;99.90
6843;DHT22;3460;52.028;8.916;2022-11-20T11:32:48;0.30;99.90
6843;DHT22;3460;52.028;8.916;2022-11-20T11:35:23;0.50;99.90
6843;DHT22;3460;52.028;8.916;2022-11-20T11:37:50;0.50;99.90
6843;DHT22;3460;52.028;8.916;2022-11-20T11:40:20;0.50;99.90
6843;DHT22;3460;52.028;8.916;2022-11-20T11:42:54;0.60;99.90
6843;DHT22;3460;52.028;8.916;2022-11-20T11:45:23;0.50;99.90
6843;DHT22;3460;52.028;8.916;2022-11-20T11:47:51;0.60;99.90
6843;DHT22;3460;52.028;8.916;2022-11-20T11:50:21;0.50;99.90
6843;DHT22;3460;52.028;8.916;2022-11-20T11:52:56;0.70;99.90
6843;DHT22;3460;52.028;8.916;2022-11-20T11:55:29;0.90;99.90
6843;DHT22;3460;52.028;8.916;2022-11-20T11:58:08;0.70;99.90
6843;DHT22;3460;52.028;8.916;2022-11-20T12:00:40;0.90;99.90
6843;DHT22;3460;52.028;8.916;2022-11-20T12:03:12;0.70;99.90
6843;DHT22;3460;52.028;8.916;2022-11-20T12:05:43;0.90;99.90
6843;DHT22;3460;52.028;8.916;2022-11-20T12:08:16;1.00;99.90
6843;DHT22;3460;52.028;8.916;2022-11-20T12:10:49;1.20;99.90
6843;DHT22;3460;52.028;8.916;2022-11-20T12:13:30;1.10;99.90
6843;DHT22;3460;52.028;8.916;2022-11-20T12:16:02;1.10;99.90
6843;DHT22;3460;52.028;8.916;2022-11-20T12:18:29;1.00;99.90
6843;DHT22;3460;52.028;8.916;2022-11-20T12:21:06;0.90;99.90
6843;DHT22;3460;52.028;8.916;2022-11-20T12:23:44;0.90;99.90
6843;DHT22;3460;52.028;8.916;2022-11-20T12:26:18;0.90;99.90
6843;DHT22;3460;52.028;8.916;2022-11-20T12:29:00;1.00;99.90
6843;DHT22;3460;52.028;8.916;2022-11-20T12:31:48;1.10;99.90
6843;DHT22;3460;52.028;8.916;2022-11-20T12:34:28;1.10;99.90
6843;DHT22;3460;52.028;8.916;2022-11-20T12:37:02;1.20;99.90
6843;DHT22;3460;52.028;8.916;2022-11-20T12:39:35;1.20;99.90
6843;DHT22;3460;52.028;8.916;2022-11-20T12:42:18;1.20;99.90
6843;DHT22;3460;52.028;8.916;2022-11-20T12:48:26;1.20;99.90
6843;DHT22;3460;52.028;8.916;2022-11-20T12:51:11;1.20;99.90
6843;DHT22;3460;52.028;8.916;2022-11-20T12:53:48;1.20;99.90
6843;DHT22;3460;52.028;8.916;2022-11-20T12:56:30;1.30;99.90
6843;DHT22;3460;52.028;8.916;2022-11-20T12:59:09;1.40;99.90
6843;DHT22;3460;52.028;8.916;2022-11-20T13:01:48;1.50;99.90
6843;DHT22;3460;52.028;8.916;2022-11-20T13:04:30;1.40;99.90
6843;DHT22;3460;52.028;8.916;2022-11-20T13:07:02;1.50;99.90
6843;DHT22;3460;52.028;8.916;2022-11-20T13:09:30;1.40;99.90
6843;DHT22;3460;52.028;8.916;2022-11-20T13:12:05;1.50;99.90
6843;DHT22;3460;52.028;8.916;2022-11-20T13:14:35;1.50;99.90
6843;DHT22;3460;52.028;8.916;2022-11-20T13:17:07;1.40;99.90
6843;DHT22;3460;52.028;8.916;2022-11-20T13:19:36;1.40;99.90
6843;DHT22;3460;52.028;8.916;2022-11-20T13:22:04;1.50;99.90
6843;DHT22;3460;52.028;8.916;2022-11-20T13:24:32;1.40;99.90
6843;DHT22;3460;52.028;8.916;2022-11-20T13:27:20;1.40;99.90
6843;DHT22;3460;52.028;8.916;2022-11-20T13:30:00;1.50;99.90
6843;DHT22;3460;52.028;8.916;2022-11-20T13:32:27;1.50;99.90
6843;DHT22;3460;52.028;8.916;2022-11-20T13:34:59;1.50;99.90
6843;DHT22;3460;52.028;8.916;2022-11-20T13:37:31;1.50;99.90
6843;DHT22;3460;52.028;8.916;2022-11-20T13:40:12;1.50;99.90
6843;DHT22;3460;52.028;8.916;2022-11-20T13:42:44;1.50;99.90
6843;DHT22;3460;52.028;8.916;2022-11-20T13:45:22;1.40;99.90
6843;DHT22;3460;52.028;8.916;2022-11-20T13:47:50;1.40;99.90
6843;DHT22;3460;52.028;8.916;2022-11-20T13:50:18;1.40;99.90
6843;DHT22;3460;52.028;8.916;2022-11-20T13:52:51;1.30;99.90
6843;DHT22;3460;52.028;8.916;2022-11-20T13:55:31;1.40;99.90
6843;DHT22;3460;52.028;8.916;2022-11-20T13:58:24;1.40;99.90
6843;DHT22;3460;52.028;8.916;2022-11-20T14:00:58;1.50;99.90
6843;DHT22;3460;52.028;8.916;2022-11-20T14:03:30;1.50;99.90
6843;DHT22;3460;52.028;8.916;2022-11-20T14:06:02;1.50;99.90
6843;DHT22;3460;52.028;8.916;2022-11-20T14:08:35;1.60;99.90
6843;DHT22;3460;52.028;8.916;2022-11-20T14:11:06;1.60;99.90
6843;DHT22;3460;52.028;8.916;2022-11-20T14:13:39;1.50;99.90
6843;DHT22;3460;52.028;8.916;2022-11-20T14:16:05;1.50;99.90
6843;DHT22;3460;52.028;8.916;2022-11-20T14:18:32;1.50;99.90
6843;DHT22;3460;52.028;8.916;2022-11-20T14:21:00;1.40;99.90
6843;DHT22;3460;52.028;8.916;2022-11-20T14:23:28;1.60;99.90
6843;DHT22;3460;52.028;8.916;2022-11-20T14:25:55;1.80;99.90
6843;DHT22;3460;52.028;8.916;2022-11-20T14:28:27;1.80;99.90
6843;DHT22;3460;52.028;8.916;2022-11-20T14:30:54;1.90;99.90
6843;DHT22;3460;52.028;8.916;2022-11-20T14:33:22;1.90;99.90
6843;DHT22;3460;52.028;8.916;2022-11-20T14:35:52;1.90;99.90
6843;DHT22;3460;52.028;8.916;2022-11-20T14:38:22;1.90;99.90
6843;DHT22;3460;52.028;8.916;2022-11-20T14:40:50;1.70;99.90
6843;DHT22;3460;52.028;8.916;2022-11-20T14:43:22;1.80;99.90
6843;DHT22;3460;52.028;8.916;2022-11-20T14:45:56;1.80;99.90
6843;DHT22;3460;52.028;8.916;2022-11-20T14:48:28;1.80;99.90
6843;DHT22;3460;52.028;8.916;2022-11-20T14:50:56;1.80;99.90
6843;DHT22;3460;52.028;8.916;2022-11-20T14:53:23;1.70;99.90
6843;DHT22;3460;52.028;8.916;2022-11-20T14:55:56;1.60;99.90
6843;DHT22;3460;52.028;8.916;2022-11-20T14:58:24;1.50;99.90
6843;DHT22;3460;52.028;8.916;2022-11-20T15:00:55;1.50;99.90
6843;DHT22;3460;52.028;8.916;2022-11-20T15:03:23;1.40;99.90
6843;DHT22;3460;52.028;8.916;2022-11-20T15:05:56;1.30;99.90
6843;DHT22;3460;52.028;8.916;2022-11-20T15:08:23;1.30;99.90
6843;DHT22;3460;52.028;8.916;2022-11-20T15:10:51;1.20;99.90
6843;DHT22;3460;52.028;8.916;2022-11-20T15:13:25;1.20;99.90
6843;DHT22;3460;52.028;8.916;2022-11-20T15:15:55;1.10;99.90
6843;DHT22;3460;52.028;8.916;2022-11-20T15:18:23;1.10;99.90
6843;DHT22;3460;52.028;8.916;2022-11-20T15:20:50;1.10;99.90
6843;DHT22;3460;52.028;8.916;2022-11-20T15:23:19;1.10;99.90
6843;DHT22;3460;52.028;8.916;2022-11-20T15:25:46;1.00;99.90
6843;DHT22;3460;52.028;8.916;2022-11-20T15:28:17;1.00;99.90
6843;DHT22;3460;52.028;8.916;2022-11-20T15:30:44;0.90;99.90
6843;DHT22;3460;52.028;8.916;2022-11-20T15:33:13;0.90;99.90
6843;DHT22;3460;52.028;8.916;2022-11-20T15:35:41;0.90;99.90
6843;DHT22;3460;52.028;8.916;2022-11-20T15:38:08;0.90;99.90
6843;DHT22;3460;52.028;8.916;2022-11-20T15:40:35;0.90;99.90
6843;DHT22;3460;52.028;8.916;2022-11-20T15:43:02;0.80;99.90
6843;DHT22;3460;52.028;8.916;2022-11-20T15:45:30;0.80;99.90
6843;DHT22;3460;52.028;8.916;2022-11-20T15:47:58;0.80;99.90
6843;DHT22;3460;52.028;8.916;2022-11-20T15:50:29;0.70;99.90
6843;DHT22;3460;52.028;8.916;2022-11-20T15:52:59;0.70;99.90
6843;DHT22;3460;52.028;8.916;2022-11-20T15:55:26;0.70;99.90
6843;DHT22;3460;52.028;8.916;2022-11-20T15:57:53;0.80;99.90
6843;DHT22;3460;52.028;8.916;2022-11-20T16:00:19;0.70;99.90
6843;DHT22;3460;52.028;8.916;2022-11-20T16:02:46;0.70;99.90
6843;DHT22;3460;52.028;8.916;2022-11-20T16:05:13;0.70;99.90
6843;DHT22;3460;52.028;8.916;2022-11-20T16:07:43;0.60;99.90
6843;DHT22;3460;52.028;8.916;2022-11-20T16:10:10;0.60;99.90
6843;DHT22;3460;52.028;8.916;2022-11-20T16:12:36;0.50;99.90
6843;DHT22;3460;52.028;8.916;2022-11-20T16:15:21;0.50;99.90
6843;DHT22;3460;52.028;8.916;2022-11-20T16:18:06;0.50;99.90
6843;DHT22;3460;52.028;8.916;2022-11-20T16:20:33;0.40;99.90
6843;DHT22;3460;52.028;8.916;2022-11-20T16:23:02;0.50;99.90
6843;DHT22;3460;52.028;8.916;2022-11-20T16:25:28;0.50;99.90
6843;DHT22;3460;52.028;8.916;2022-11-20T16:27:55;0.50;99.90